createdAt,value
2022-09-10T00:00:08.982Z,1.90
2022-09-10T00:02:40.728Z,1.70
2022-09-10T00:05:13.044Z,2.67
2022-09-10T00:07:44.717Z,1.60
2022-09-10T00:10:18.544Z,1.83
2022-09-10T00:12:51.154Z,1.93
2022-09-10T00:15:22.830Z,1.70
2022-09-10T00:17:54.196Z,1.90
2022-09-10T00:20:26.968Z,1.87
2022-09-10T00:22:58.310Z,1.77
2022-09-10T00:25:32.229Z,2.03
2022-09-10T00:28:03.579Z,1.60
2022-09-10T00:30:40.961Z,1.90
2022-09-10T00:33:14.114Z,2.30
2022-09-10T00:35:46.597Z,1.77
2022-09-10T00:38:18.477Z,1.53
2022-09-10T00:40:49.867Z,1.90
2022-09-10T00:43:22.176Z,1.80
2022-09-10T00:45:55.335Z,1.50
2022-09-10T00:48:32.257Z,1.90
2022-09-10T00:51:05.931Z,1.37
2022-09-10T00:53:37.459Z,1.13
2022-09-10T00:56:09.049Z,1.60
2022-09-10T00:58:41.360Z,1.47
2022-09-10T01:01:13.469Z,1.50
2022-09-10T01:03:46.200Z,1.70
2022-09-10T01:06:18.373Z,1.40
2022-09-10T01:08:49.721Z,1.60
2022-09-10T01:11:37.773Z,1.23
2022-09-10T01:14:47.257Z,1.20
2022-09-10T01:17:37.054Z,1.30
2022-09-10T01:20:35.077Z,1.20
2022-09-10T01:23:27.999Z,1.33
2022-09-10T01:26:25.013Z,1.10
2022-09-10T01:31:51.765Z,1.00
2022-09-10T01:34:51.043Z,1.10
2022-09-10T01:37:29.372Z,1.30
2022-09-10T01:40:03.154Z,1.37
2022-09-10T01:42:38.387Z,1.50
2022-09-10T01:45:13.992Z,1.05
2022-09-10T01:48:19.290Z,1.52
2022-09-10T01:51:08.762Z,0.93
2022-09-10T01:54:18.757Z,1.17
2022-09-10T01:57:04.181Z,1.17
2022-09-10T01:59:44.588Z,1.23
2022-09-10T02:02:23.916Z,1.20
2022-09-10T02:04:57.420Z,1.30
2022-09-10T02:07:32.028Z,1.33
2022-09-10T02:10:06.645Z,1.53
2022-09-10T02:12:39.942Z,1.30
2022-09-10T02:15:12.014Z,1.30
2022-09-10T02:17:46.556Z,1.20
2022-09-10T02:20:19.695Z,1.03
2022-09-10T02:22:56.849Z,1.40
2022-09-10T02:25:33.556Z,1.40
2022-09-10T02:28:06.069Z,1.43
2022-09-10T02:30:37.733Z,1.30
2022-09-10T02:33:09.077Z,1.43
2022-09-10T02:35:40.383Z,1.50
2022-09-10T02:38:11.733Z,1.90
2022-09-10T02:40:43.222Z,1.70
2022-09-10T02:43:15.544Z,1.53
2022-09-10T02:45:46.983Z,1.50
2022-09-10T02:48:18.316Z,1.30
2022-09-10T02:50:49.679Z,1.70
2022-09-10T02:53:21.285Z,1.60
2022-09-10T02:55:52.856Z,1.50
2022-09-10T02:58:24.286Z,1.70
2022-09-10T03:01:05.911Z,1.97
2022-09-10T03:03:37.678Z,1.50
2022-09-10T03:06:09.638Z,1.83
2022-09-10T03:08:41.015Z,1.57
2022-09-10T03:11:15.296Z,1.80
2022-09-10T03:13:46.624Z,1.70
2022-09-10T03:16:19.024Z,1.93
2022-09-10T03:18:51.933Z,1.63
2022-09-10T03:21:25.102Z,2.17
2022-09-10T03:23:57.214Z,2.17
2022-09-10T03:26:28.722Z,1.70
2022-09-10T03:29:00.094Z,1.93
2022-09-10T03:31:32.041Z,1.87
2022-09-10T03:34:04.099Z,1.80
2022-09-10T03:36:35.593Z,1.90
2022-09-10T03:39:06.920Z,1.83
2022-09-10T03:41:38.293Z,2.03
2022-09-10T03:44:10.231Z,2.20
2022-09-10T03:46:41.520Z,2.00
2022-09-10T03:49:12.849Z,1.97
2022-09-10T03:51:44.216Z,1.63
2022-09-10T03:54:15.800Z,1.80
2022-09-10T03:56:47.113Z,2.20
2022-09-10T03:59:18.639Z,2.00
2022-09-10T04:01:50.627Z,2.50
2022-09-10T04:04:22.074Z,2.30
2022-09-10T04:06:53.769Z,2.30
2022-09-10T04:09:25.202Z,2.17
2022-09-10T04:11:56.853Z,2.20
2022-09-10T04:14:28.213Z,2.30
2022-09-10T04:16:59.581Z,2.37
2022-09-10T04:19:30.939Z,2.57
2022-09-10T04:22:03.017Z,2.67
2022-09-10T04:24:34.404Z,2.27
2022-09-10T04:27:06.301Z,3.10
2022-09-10T04:29:38.074Z,2.40
2022-09-10T04:32:09.466Z,2.40
2022-09-10T04:34:41.105Z,2.70
2022-09-10T04:37:16.186Z,2.27
2022-09-10T04:39:51.066Z,3.10
2022-09-10T04:42:22.790Z,2.77
2022-09-10T04:44:54.323Z,2.90
2022-09-10T04:47:25.845Z,2.67
2022-09-10T04:49:57.471Z,3.00
2022-09-10T04:52:28.979Z,3.20
2022-09-10T04:55:00.342Z,2.63
2022-09-10T04:57:31.685Z,2.73
2022-09-10T05:00:07.679Z,3.30
2022-09-10T05:02:39.281Z,2.75
2022-09-10T05:05:10.618Z,3.10
2022-09-10T05:07:42.085Z,2.80
2022-09-10T05:10:15.211Z,2.77
2022-09-10T05:12:48.010Z,3.30
2022-09-10T05:15:19.396Z,3.43
2022-09-10T05:17:51.639Z,2.90
2022-09-10T05:20:23.106Z,3.23
2022-09-10T05:22:54.908Z,3.00
2022-09-10T05:25:27.730Z,3.07
2022-09-10T05:28:01.048Z,3.23
2022-09-10T05:30:32.634Z,2.90
2022-09-10T05:33:04.407Z,3.50
2022-09-10T05:35:35.847Z,3.70
2022-09-10T05:38:08.234Z,3.63
2022-09-10T05:40:42.154Z,3.20
2022-09-10T05:43:13.433Z,3.83
2022-09-10T05:45:44.882Z,3.83
2022-09-10T05:48:16.321Z,3.90
2022-09-10T05:50:47.728Z,3.33
2022-09-10T05:53:19.078Z,3.43
2022-09-10T05:55:50.570Z,3.77
2022-09-10T05:58:21.934Z,3.60
2022-09-10T06:00:58.119Z,3.60
2022-09-10T06:03:29.535Z,4.00
2022-09-10T06:06:00.906Z,3.83
2022-09-10T06:08:32.305Z,4.03
2022-09-10T06:11:05.861Z,4.07
2022-09-10T06:13:39.573Z,4.33
2022-09-10T06:16:11.830Z,3.83
2022-09-10T06:18:44.032Z,4.10
2022-09-10T06:21:18.283Z,4.10
2022-09-10T06:23:53.547Z,4.70
2022-09-10T06:26:25.550Z,4.13
2022-09-10T06:28:56.950Z,5.03
2022-09-10T06:31:28.771Z,4.97
2022-09-10T06:34:01.579Z,4.53
2022-09-10T06:36:33.880Z,5.07
2022-09-10T06:39:07.040Z,4.90
2022-09-10T06:41:39.286Z,5.10
2022-09-10T06:44:10.909Z,4.57
2022-09-10T06:49:36.540Z,5.47
2022-09-10T06:52:08.076Z,4.77
2022-09-10T06:54:39.743Z,5.10
2022-09-10T06:57:11.343Z,5.73
2022-09-10T06:59:43.670Z,5.67
2022-09-10T07:02:15.253Z,5.00
2022-09-10T07:04:46.628Z,4.90
2022-09-10T07:07:17.975Z,5.30
2022-09-10T07:09:49.271Z,5.40
2022-09-10T07:12:21.284Z,5.27
2022-09-10T07:14:52.766Z,4.75
2022-09-10T07:17:24.057Z,4.78
2022-09-10T07:19:55.622Z,4.97
2022-09-10T07:22:26.985Z,4.93
2022-09-10T07:24:59.285Z,5.10
2022-09-10T07:27:30.673Z,5.22
2022-09-10T07:30:02.009Z,5.10
2022-09-10T07:32:33.667Z,5.43
2022-09-10T07:35:07.402Z,4.53
2022-09-10T07:37:39.220Z,5.53
2022-09-10T07:40:10.708Z,5.53
2022-09-10T07:42:44.091Z,5.38
2022-09-10T07:45:16.136Z,5.00
2022-09-10T07:47:48.669Z,6.00
2022-09-10T07:50:20.291Z,5.50
2022-09-10T07:52:52.680Z,5.45
2022-09-10T07:55:24.188Z,5.63
2022-09-10T07:57:59.874Z,5.55
2022-09-10T08:03:03.203Z,6.60
2022-09-10T08:05:37.140Z,6.32
2022-09-10T08:08:10.419Z,6.53
2022-09-10T08:10:42.155Z,6.22
2022-09-10T08:13:13.440Z,6.65
2022-09-10T08:15:45.082Z,6.55
2022-09-10T08:18:17.151Z,6.63
2022-09-10T08:20:54.594Z,6.75
2022-09-10T08:23:25.945Z,7.78
2022-09-10T08:25:58.274Z,7.30
2022-09-10T08:28:29.847Z,6.85
2022-09-10T08:31:07.673Z,7.00
2022-09-10T08:33:40.084Z,7.15
2022-09-10T08:36:13.893Z,6.78
2022-09-10T08:38:46.157Z,6.80
2022-09-10T08:41:49.475Z,7.00
2022-09-10T08:44:34.660Z,7.50
2022-09-10T08:47:25.025Z,7.53
2022-09-10T08:50:24.632Z,7.57
2022-09-10T08:53:23.007Z,7.03
2022-09-10T08:55:58.381Z,7.18
2022-09-10T08:58:45.173Z,7.00
2022-09-10T09:01:43.403Z,7.70
2022-09-10T09:04:34.080Z,7.55
2022-09-10T09:07:14.478Z,7.78
2022-09-10T09:09:51.227Z,6.90
2022-09-10T09:12:58.900Z,8.35
2022-09-10T09:15:39.143Z,8.05
2022-09-10T09:18:20.304Z,8.05
2022-09-10T09:20:56.340Z,8.55
2022-09-10T09:23:48.058Z,7.47
2022-09-10T09:26:36.168Z,7.53
2022-09-10T09:29:18.992Z,7.28
2022-09-10T09:31:57.792Z,7.82
2022-09-10T09:34:39.533Z,7.85
2022-09-10T09:37:17.371Z,7.93
2022-09-10T09:40:07.159Z,7.43
2022-09-10T09:42:53.574Z,7.72
2022-09-10T09:48:13.526Z,7.38
2022-09-10T09:50:51.380Z,6.75
2022-09-10T09:53:27.659Z,6.88
2022-09-10T09:56:01.845Z,6.97
2022-09-10T09:58:35.587Z,7.70
2022-09-10T10:01:10.420Z,7.20
2022-09-10T10:03:54.462Z,7.37
2022-09-10T10:06:45.916Z,6.53
2022-09-10T10:09:22.692Z,5.68
2022-09-10T10:12:05.860Z,6.35
2022-09-10T10:14:44.615Z,5.45
2022-09-10T10:17:32.400Z,5.60
2022-09-10T10:20:07.220Z,5.53
2022-09-10T10:22:48.651Z,5.82
2022-09-10T10:25:41.228Z,5.05
2022-09-10T10:28:22.675Z,5.00
2022-09-10T10:30:59.136Z,6.00
2022-09-10T10:33:33.453Z,5.35
2022-09-10T10:36:18.714Z,5.93
2022-09-10T10:39:02.187Z,6.17
2022-09-10T10:41:41.622Z,6.00
2022-09-10T10:44:32.333Z,6.15
2022-09-10T10:47:27.316Z,6.85
2022-09-10T10:50:19.456Z,6.63
2022-09-10T10:53:13.000Z,5.45
2022-09-10T10:55:53.349Z,4.40
2022-09-10T10:58:54.424Z,5.60
2022-09-10T11:01:30.078Z,4.68
2022-09-10T11:04:27.471Z,4.47
2022-09-10T11:07:18.464Z,4.97
2022-09-10T11:10:29.757Z,4.97
2022-09-10T11:13:13.010Z,4.95
2022-09-10T11:15:52.296Z,3.20
2022-09-10T11:18:46.037Z,3.58
2022-09-10T11:21:29.738Z,4.70
2022-09-10T11:24:19.950Z,4.32
2022-09-10T11:27:05.546Z,4.07
2022-09-10T11:29:45.784Z,4.32
2022-09-10T11:32:27.426Z,3.47
2022-09-10T11:35:15.320Z,3.85
2022-09-10T11:38:22.293Z,3.78
2022-09-10T11:44:10.598Z,4.13
2022-09-10T11:47:06.416Z,3.50
2022-09-10T11:50:16.378Z,3.70
2022-09-10T11:52:47.935Z,3.55
2022-09-10T11:55:19.432Z,3.88
2022-09-10T11:58:11.538Z,3.88
2022-09-10T12:00:58.940Z,4.35
2022-09-10T12:04:05.956Z,4.45
2022-09-10T12:06:52.183Z,5.32
2022-09-10T12:12:18.994Z,5.28
2022-09-10T12:14:50.761Z,5.20
2022-09-10T12:17:36.776Z,6.28
2022-09-10T12:20:34.134Z,7.07
2022-09-10T12:23:06.492Z,7.65
2022-09-10T12:25:38.513Z,7.80
2022-09-10T12:28:41.812Z,11.48
2022-09-10T12:31:15.631Z,19.48
2022-09-10T12:33:46.985Z,11.07
2022-09-10T12:36:27.728Z,21.83
2022-09-10T12:39:22.462Z,11.85
2022-09-10T12:41:55.700Z,11.63
2022-09-10T12:44:42.821Z,61.58
2022-09-10T12:47:17.272Z,11.38
2022-09-10T12:49:53.144Z,7.90
2022-09-10T12:55:40.858Z,7.78
2022-09-10T12:58:43.943Z,8.32
2022-09-10T13:01:40.245Z,8.43
2022-09-10T13:04:34.702Z,11.48
2022-09-10T13:07:21.416Z,7.28
2022-09-10T13:10:00.034Z,7.35
2022-09-10T13:12:35.735Z,7.95
2022-09-10T13:15:16.368Z,8.10
2022-09-10T13:17:47.651Z,7.35
2022-09-10T13:20:31.824Z,12.55
2022-09-10T13:23:09.153Z,8.15
2022-09-10T13:25:51.335Z,9.38
2022-09-10T13:28:28.786Z,10.00
2022-09-10T13:31:04.339Z,10.00
2022-09-10T13:33:52.404Z,9.32
2022-09-10T13:36:48.006Z,8.73
2022-09-10T13:39:44.090Z,8.32
2022-09-10T13:42:49.093Z,9.05
2022-09-10T13:45:30.398Z,8.02
2022-09-10T13:48:15.102Z,8.10
2022-09-10T13:51:05.814Z,8.93
2022-09-10T13:53:43.667Z,8.82
2022-09-10T13:56:27.523Z,9.48
2022-09-10T13:59:03.039Z,9.45
2022-09-10T14:01:53.932Z,8.07
2022-09-10T14:04:31.959Z,8.02
2022-09-10T14:07:22.806Z,7.65
2022-09-10T14:09:59.694Z,7.07
2022-09-10T14:12:34.502Z,8.05
2022-09-10T14:15:07.131Z,8.27
2022-09-10T14:17:45.021Z,7.57
2022-09-10T14:20:27.457Z,7.68
2022-09-10T14:23:02.333Z,6.05
2022-09-10T14:25:36.589Z,7.15
2022-09-10T14:28:27.660Z,7.70
2022-09-10T14:31:22.773Z,7.40
2022-09-10T14:33:55.822Z,6.82
2022-09-10T14:36:27.620Z,7.22
2022-09-10T14:39:06.755Z,8.45
2022-09-10T14:41:38.116Z,8.48
2022-09-10T14:44:20.370Z,6.70
2022-09-10T14:46:58.294Z,7.30
2022-09-10T14:49:34.624Z,7.13
2022-09-10T14:52:07.716Z,8.20
2022-09-10T14:54:39.150Z,11.57
2022-09-10T14:57:14.626Z,11.88
2022-09-10T14:59:46.404Z,72.57
2022-09-10T15:02:26.540Z,22.08
2022-09-10T15:04:57.959Z,17.05
2022-09-10T15:07:29.300Z,15.63
2022-09-10T15:10:01.575Z,11.57
2022-09-10T15:12:33.592Z,8.13
2022-09-10T15:15:05.739Z,8.45
2022-09-10T15:17:37.283Z,8.82
2022-09-10T15:20:17.456Z,8.68
2022-09-10T15:22:49.164Z,8.27
2022-09-10T15:25:33.889Z,7.65
2022-09-10T15:28:10.177Z,7.65
2022-09-10T15:30:41.618Z,8.50
2022-09-10T15:33:14.572Z,7.97
2022-09-10T15:35:47.168Z,7.10
2022-09-10T15:38:21.312Z,8.93
2022-09-10T15:41:05.598Z,7.95
2022-09-10T15:43:39.694Z,8.02
2022-09-10T15:46:13.297Z,8.18
2022-09-10T15:48:47.353Z,7.78
2022-09-10T15:51:21.478Z,6.03
2022-09-10T15:53:53.962Z,4.80
2022-09-10T15:56:28.324Z,4.68
2022-09-10T15:58:59.750Z,3.72
2022-09-10T16:01:32.106Z,3.28
2022-09-10T16:04:04.643Z,3.25
2022-09-10T16:06:39.222Z,3.30
2022-09-10T16:09:12.825Z,3.08
2022-09-10T16:11:44.664Z,3.13
2022-09-10T16:14:16.709Z,2.67
2022-09-10T16:16:50.879Z,2.80
2022-09-10T16:19:23.211Z,2.30
2022-09-10T16:21:54.604Z,2.83
2022-09-10T16:24:25.931Z,2.33
2022-09-10T16:26:57.405Z,2.42
2022-09-10T16:29:28.793Z,2.72
2022-09-10T16:32:00.207Z,1.85
2022-09-10T16:34:31.578Z,2.58
2022-09-10T16:37:03.438Z,2.08
2022-09-10T16:39:34.790Z,2.05
2022-09-10T16:42:06.287Z,2.05
2022-09-10T16:44:37.614Z,2.30
2022-09-10T16:47:09.042Z,2.10
2022-09-10T16:49:40.352Z,2.00
2022-09-10T16:52:12.094Z,2.50
2022-09-10T16:54:45.968Z,6.53
2022-09-10T16:57:17.558Z,16.92
2022-09-10T16:59:49.218Z,9.80
2022-09-10T17:02:20.584Z,49.13
2022-09-10T17:04:52.457Z,31.23
2022-09-10T17:07:23.915Z,40.95
2022-09-10T17:10:00.103Z,18.30
2022-09-10T17:12:32.179Z,12.98
2022-09-10T17:15:03.884Z,6.93
2022-09-10T17:17:35.183Z,4.68
2022-09-10T17:20:07.345Z,3.38
2022-09-10T17:22:38.644Z,2.55
2022-09-10T17:25:10.011Z,2.67
2022-09-10T17:27:41.365Z,2.63
2022-09-10T17:30:12.872Z,3.45
2022-09-10T17:32:44.181Z,15.07
2022-09-10T17:35:15.526Z,5.03
2022-09-10T17:37:47.513Z,12.68
2022-09-10T17:40:20.043Z,116.45
2022-09-10T17:42:51.370Z,156.05
2022-09-10T17:45:22.800Z,51.83
2022-09-10T17:47:54.183Z,18.88
2022-09-10T17:50:25.504Z,14.30
2022-09-10T17:52:57.391Z,6.75
2022-09-10T17:55:33.473Z,7.78
2022-09-10T17:58:05.205Z,7.65
2022-09-10T18:00:40.578Z,7.93
2022-09-10T18:03:12.427Z,6.50
2022-09-10T18:05:45.028Z,5.78
2022-09-10T18:08:16.470Z,4.70
2022-09-10T18:10:48.574Z,3.47
2022-09-10T18:13:20.807Z,3.42
2022-09-10T18:15:52.421Z,3.70
2022-09-10T18:18:23.742Z,3.85
2022-09-10T18:20:56.336Z,4.70
2022-09-10T18:23:27.685Z,4.20
2022-09-10T18:25:59.423Z,4.05
2022-09-10T18:28:30.694Z,3.30
2022-09-10T18:31:03.497Z,3.35
2022-09-10T18:33:40.595Z,3.72
2022-09-10T18:36:17.775Z,4.22
2022-09-10T18:38:49.078Z,4.82
2022-09-10T18:41:25.930Z,5.72
2022-09-10T18:44:00.680Z,6.40
2022-09-10T18:46:33.037Z,5.28
2022-09-10T18:49:05.159Z,5.47
2022-09-10T18:51:36.435Z,4.55
2022-09-10T18:54:09.027Z,5.05
2022-09-10T18:56:41.512Z,5.75
2022-09-10T18:59:15.486Z,5.35
2022-09-10T19:01:48.377Z,5.00
2022-09-10T19:04:23.667Z,4.95
2022-09-10T19:06:56.312Z,4.50
2022-09-10T19:09:30.175Z,4.70
2022-09-10T19:12:02.365Z,7.82
2022-09-10T19:14:35.661Z,17.05
2022-09-10T19:17:07.001Z,13.10
2022-09-10T19:19:38.424Z,24.25
2022-09-10T19:22:10.583Z,7.70
2022-09-10T19:24:54.579Z,6.50
2022-09-10T19:27:26.689Z,10.02
2022-09-10T19:29:58.093Z,8.63
2022-09-10T19:32:29.545Z,6.93
2022-09-10T19:35:01.195Z,9.93
2022-09-10T19:37:32.519Z,6.75
2022-09-10T19:40:04.237Z,6.97
2022-09-10T19:42:35.582Z,7.25
2022-09-10T19:45:10.179Z,6.50
2022-09-10T19:47:42.905Z,5.47
2022-09-10T19:50:14.390Z,6.00
2022-09-10T19:52:45.795Z,5.00
2022-09-10T19:55:18.044Z,5.68
2022-09-10T19:57:50.278Z,6.57
2022-09-10T20:00:43.418Z,7.95
2022-09-10T20:03:14.117Z,6.88
2022-09-10T20:05:46.151Z,36.43
2022-09-10T20:08:17.450Z,147.40
2022-09-10T20:10:51.833Z,53.30
2022-09-10T20:13:23.369Z,25.83
2022-09-10T20:15:56.082Z,10.93
2022-09-10T20:18:28.544Z,7.03
2022-09-10T20:21:13.994Z,8.20
2022-09-10T20:23:47.843Z,6.67
2022-09-10T20:26:31.621Z,5.60
2022-09-10T20:29:06.090Z,6.13
2022-09-10T20:31:40.921Z,6.10
2022-09-10T20:34:15.334Z,6.07
2022-09-10T20:36:48.146Z,8.43
2022-09-10T20:39:21.891Z,6.47
2022-09-10T20:41:53.582Z,10.53
2022-09-10T20:44:25.865Z,7.87
2022-09-10T20:46:57.220Z,7.40
2022-09-10T20:49:28.703Z,7.80
2022-09-10T20:52:00.077Z,7.67
2022-09-10T20:54:31.392Z,9.70
2022-09-10T20:57:02.936Z,11.93
2022-09-10T20:59:34.532Z,11.77
2022-09-10T21:02:06.761Z,10.30
2022-09-10T21:04:39.517Z,10.93
2022-09-10T21:07:10.844Z,8.63
2022-09-10T21:09:42.148Z,7.80
2022-09-10T21:12:13.537Z,6.97
2022-09-10T21:14:44.890Z,8.73
2022-09-10T21:17:16.235Z,7.93
2022-09-10T21:19:47.856Z,10.13
2022-09-10T21:22:20.210Z,10.47
2022-09-10T21:24:51.662Z,9.43
2022-09-10T21:27:23.984Z,8.30
2022-09-10T21:29:55.345Z,8.60
2022-09-10T21:32:26.671Z,8.63
2022-09-10T21:34:59.267Z,7.50
2022-09-10T21:37:30.808Z,11.17
2022-09-10T21:40:03.003Z,7.13
2022-09-10T21:42:34.338Z,5.60
2022-09-10T21:45:07.000Z,7.43
2022-09-10T21:47:38.777Z,8.20
2022-09-10T21:50:10.189Z,7.33
2022-09-10T21:52:41.538Z,8.90
2022-09-10T21:55:12.935Z,11.67
2022-09-10T21:57:44.349Z,9.63
2022-09-10T22:00:16.165Z,12.13
2022-09-10T22:02:49.464Z,10.07
2022-09-10T22:05:21.343Z,11.77
2022-09-10T22:07:52.959Z,8.47
2022-09-10T22:10:24.271Z,7.87
2022-09-10T22:12:56.761Z,8.40
2022-09-10T22:15:28.232Z,9.83
2022-09-10T22:17:59.880Z,12.73
2022-09-10T22:20:33.474Z,9.40
2022-09-10T22:23:04.860Z,9.73
2022-09-10T22:25:36.228Z,10.50
2022-09-10T22:28:07.569Z,10.57
2022-09-10T22:30:38.833Z,11.60
2022-09-10T22:33:10.252Z,9.57
2022-09-10T22:35:41.666Z,12.00
2022-09-10T22:38:16.852Z,15.07
2022-09-10T22:40:51.322Z,34.47
2022-09-10T22:43:22.652Z,27.47
2022-09-10T22:45:54.084Z,26.50
2022-09-10T22:48:25.474Z,30.60
2022-09-10T22:50:56.842Z,31.30
2022-09-10T22:53:28.266Z,33.63
2022-09-10T22:56:00.940Z,24.50
2022-09-10T22:58:33.163Z,29.03
2022-09-10T23:01:15.947Z,26.70
2022-09-10T23:03:48.515Z,30.70
2022-09-10T23:06:22.620Z,36.37
2022-09-10T23:08:56.817Z,29.47
2022-09-10T23:11:30.453Z,26.60
2022-09-10T23:14:05.543Z,25.57
2022-09-10T23:16:39.710Z,27.00
2022-09-10T23:19:13.608Z,26.43
2022-09-10T23:21:47.376Z,27.03
2022-09-10T23:24:21.848Z,26.87
2022-09-10T23:26:53.768Z,26.67
2022-09-10T23:29:25.287Z,24.40
2022-09-10T23:31:56.601Z,24.67
2022-09-10T23:34:28.002Z,25.57
2022-09-10T23:36:59.361Z,23.50
2022-09-10T23:39:30.695Z,26.03
2022-09-10T23:42:02.243Z,24.30
2022-09-10T23:44:35.017Z,21.23
2022-09-10T23:47:06.931Z,23.27
2022-09-10T23:49:38.340Z,22.63
2022-09-10T23:52:09.860Z,22.30
2022-09-10T23:54:41.676Z,22.87
2022-09-10T23:57:13.156Z,21.40
2022-09-10T23:59:44.740Z,20.73
